createdAt,value
2023-05-06T00:00:41.266Z,99933.92
2023-05-06T00:03:15.082Z,99933.99
2023-05-06T00:05:43.585Z,99931.42
2023-05-06T00:08:12.356Z,99924.20
2023-05-06T00:10:40.553Z,99923.61
2023-05-06T00:13:09.700Z,99922.16
2023-05-06T00:15:38.167Z,99917.58
2023-05-06T00:18:09.229Z,99918.46
2023-05-06T00:20:37.539Z,99913.35
2023-05-06T00:23:05.969Z,99913.23
2023-05-06T00:25:35.527Z,99909.52
2023-05-06T00:28:04.276Z,99905.73
2023-05-06T00:30:33.956Z,99904.05
2023-05-06T00:33:02.453Z,99899.48
2023-05-06T00:35:31.386Z,99899.15
2023-05-06T00:38:13.788Z,99904.14
2023-05-06T00:40:42.039Z,99901.54
2023-05-06T00:43:10.431Z,99895.81
2023-05-06T00:45:41.066Z,99902.08
2023-05-06T00:48:09.959Z,99899.88
2023-05-06T00:50:40.862Z,99896.11
2023-05-06T00:53:13.776Z,99892.06
2023-05-06T00:55:42.302Z,99891.85
2023-05-06T00:58:10.904Z,99896.17
2023-05-06T01:00:39.275Z,99895.54
2023-05-06T01:03:07.770Z,99891.89
2023-05-06T01:05:58.255Z,99886.36
2023-05-06T01:08:42.395Z,99882.35
2023-05-06T01:11:21.793Z,99879.99
2023-05-06T01:14:06.522Z,99883.22
2023-05-06T01:16:40.022Z,99886.52
2023-05-06T01:19:14.866Z,99891.79
2023-05-06T01:21:46.519Z,99897.08
2023-05-06T01:24:14.918Z,99900.64
2023-05-06T01:26:44.248Z,99901.27
2023-05-06T01:29:12.688Z,99902.69
2023-05-06T01:31:48.577Z,99903.23
2023-05-06T01:34:28.591Z,99905.64
2023-05-06T01:37:23.587Z,99912.09
2023-05-06T01:39:56.406Z,99917.03
2023-05-06T01:42:27.356Z,99919.84
2023-05-06T01:44:57.499Z,99919.95
2023-05-06T01:47:26.240Z,99920.89
2023-05-06T01:49:54.746Z,99919.21
2023-05-06T01:52:23.070Z,99914.92
2023-05-06T01:54:51.982Z,99913.98
2023-05-06T01:57:20.471Z,99912.27
2023-05-06T01:59:51.012Z,99907.20
2023-05-06T02:02:19.313Z,99903.83
2023-05-06T02:04:47.782Z,99900.23
2023-05-06T02:07:16.276Z,99899.30
2023-05-06T02:09:44.880Z,99900.85
2023-05-06T02:12:13.234Z,99897.56
2023-05-06T02:14:41.580Z,99904.70
2023-05-06T02:17:09.819Z,99906.06
2023-05-06T02:19:38.022Z,99903.67
2023-05-06T02:22:06.328Z,99897.70
2023-05-06T02:24:34.537Z,99900.45
2023-05-06T02:27:04.593Z,99897.08
2023-05-06T02:29:35.273Z,99893.75
2023-05-06T02:32:04.129Z,99892.77
2023-05-06T02:34:32.693Z,99889.73
2023-05-06T02:37:01.216Z,99888.27
2023-05-06T02:39:30.206Z,99892.81
2023-05-06T02:41:58.762Z,99885.14
2023-05-06T02:44:36.256Z,99884.29
2023-05-06T02:47:04.772Z,99878.25
2023-05-06T02:49:35.951Z,99874.67
2023-05-06T02:52:13.463Z,99873.86
2023-05-06T02:54:41.790Z,99877.70
2023-05-06T02:57:11.638Z,99870.77
2023-05-06T02:59:40.188Z,99872.42
2023-05-06T03:02:08.786Z,99869.27
2023-05-06T03:04:37.499Z,99867.27
2023-05-06T03:07:06.549Z,99865.89
2023-05-06T03:09:37.498Z,99866.45
2023-05-06T03:12:29.732Z,99861.54
2023-05-06T03:15:41.402Z,99858.27
2023-05-06T03:18:09.968Z,99856.38
2023-05-06T03:20:38.746Z,99853.44
2023-05-06T03:23:29.538Z,99852.53
2023-05-06T03:25:59.425Z,99850.55
2023-05-06T03:28:50.914Z,99844.67
2023-05-06T03:31:20.936Z,99840.88
2023-05-06T03:33:49.521Z,99839.36
2023-05-06T03:36:18.277Z,99836.65
2023-05-06T03:38:50.279Z,99831.84
2023-05-06T03:41:39.102Z,99828.23
2023-05-06T03:44:07.419Z,99823.16
2023-05-06T03:46:36.246Z,99828.19
2023-05-06T03:49:06.154Z,99831.23
2023-05-06T03:51:55.182Z,99825.00
2023-05-06T03:54:26.310Z,99818.33
2023-05-06T03:57:14.976Z,99811.90
2023-05-06T03:59:46.484Z,99815.24
2023-05-06T04:02:15.202Z,99818.72
2023-05-06T04:05:04.971Z,99821.97
2023-05-06T04:07:34.051Z,99826.67
2023-05-06T04:10:05.369Z,99830.85
2023-05-06T04:12:34.513Z,99836.09
2023-05-06T04:15:03.011Z,99835.09
2023-05-06T04:17:43.546Z,99833.92
2023-05-06T04:20:32.436Z,99835.20
2023-05-06T04:23:02.007Z,99835.47
2023-05-06T04:25:33.803Z,99832.05
2023-05-06T04:28:02.702Z,99832.55
2023-05-06T04:30:51.875Z,99834.63
2023-05-06T04:33:20.351Z,99834.50
2023-05-06T04:36:14.909Z,99831.62
2023-05-06T04:38:47.349Z,99833.63
2023-05-06T04:41:55.644Z,99829.15
2023-05-06T04:44:27.303Z,99818.00
2023-05-06T04:47:52.906Z,99809.86
2023-05-06T04:50:24.697Z,99800.52
2023-05-06T04:53:02.430Z,99802.52
2023-05-06T04:55:31.096Z,99798.02
2023-05-06T04:58:02.427Z,99797.42
2023-05-06T05:00:34.625Z,99795.63
2023-05-06T05:03:03.236Z,99797.01
2023-05-06T05:06:12.510Z,99787.15
2023-05-06T05:08:50.526Z,99780.93
2023-05-06T05:11:18.943Z,99778.48
2023-05-06T05:13:50.057Z,99775.20
2023-05-06T05:16:25.889Z,99770.05
2023-05-06T05:19:26.411Z,99773.15
2023-05-06T05:21:55.115Z,99778.05
2023-05-06T05:24:26.655Z,99776.87
2023-05-06T05:27:15.321Z,99779.98
2023-05-06T05:29:44.037Z,99781.89
2023-05-06T05:32:12.538Z,99780.52
2023-05-06T05:35:21.368Z,99780.98
2023-05-06T05:37:49.999Z,99778.39
2023-05-06T05:40:18.378Z,99776.39
2023-05-06T05:42:59.877Z,99771.60
2023-05-06T05:45:49.301Z,99769.34
2023-05-06T05:48:17.936Z,99774.77
2023-05-06T05:51:03.599Z,99775.94
2023-05-06T05:53:31.890Z,99777.08
2023-05-06T05:56:14.914Z,99781.53
2023-05-06T05:59:23.928Z,99779.39
2023-05-06T06:02:15.524Z,99781.19
2023-05-06T06:05:08.060Z,99777.22
2023-05-06T06:07:36.750Z,99777.98
2023-05-06T06:10:07.335Z,99772.80
2023-05-06T06:12:38.470Z,99769.12
2023-05-06T06:15:31.227Z,99761.92
2023-05-06T06:17:59.634Z,99753.11
2023-05-06T06:20:48.267Z,99747.48
2023-05-06T06:23:28.156Z,99742.88
2023-05-06T06:26:00.130Z,99745.34
2023-05-06T06:28:31.724Z,99744.35
2023-05-06T06:31:00.137Z,99750.08
2023-05-06T06:33:31.151Z,99749.97
2023-05-06T06:36:27.683Z,99754.20
2023-05-06T06:39:07.122Z,99756.91
2023-05-06T06:41:43.615Z,99756.12
2023-05-06T06:44:12.732Z,99755.55
2023-05-06T06:46:47.270Z,99759.32
2023-05-06T06:50:16.795Z,99756.86
2023-05-06T06:53:25.744Z,99758.70
2023-05-06T06:56:19.091Z,99752.08
2023-05-06T06:58:53.027Z,99751.99
2023-05-06T07:01:25.663Z,99751.15
2023-05-06T07:03:54.185Z,99754.61
2023-05-06T07:06:25.832Z,99754.58
2023-05-06T07:08:54.249Z,99751.71
2023-05-06T07:11:43.104Z,99750.70
2023-05-06T07:14:13.007Z,99750.83
2023-05-06T07:16:42.886Z,99755.95
2023-05-06T07:19:31.628Z,99761.81
2023-05-06T07:22:04.108Z,99766.92
2023-05-06T07:25:01.920Z,99765.55
2023-05-06T07:27:31.019Z,99767.87
2023-05-06T07:30:02.623Z,99775.18
2023-05-06T07:32:31.019Z,99783.77
2023-05-06T07:35:05.879Z,99795.11
2023-05-06T07:37:36.857Z,99797.69
2023-05-06T07:40:06.611Z,99802.79
2023-05-06T07:42:34.923Z,99808.88
2023-05-06T07:45:04.501Z,99814.03
2023-05-06T07:47:33.745Z,99808.71
2023-05-06T07:50:14.670Z,99811.64
2023-05-06T07:52:43.177Z,99807.63
2023-05-06T07:55:24.019Z,99814.76
2023-05-06T07:57:52.549Z,99821.77
2023-05-06T08:00:21.152Z,99830.30
2023-05-06T08:02:49.537Z,99832.39
2023-05-06T08:05:18.347Z,99832.34
2023-05-06T08:07:47.261Z,99841.48
2023-05-06T08:10:15.410Z,99840.52
2023-05-06T08:12:44.210Z,99845.56
2023-05-06T08:15:13.003Z,99844.63
2023-05-06T08:17:41.589Z,99843.47
2023-05-06T08:20:11.145Z,99843.52
2023-05-06T08:22:52.311Z,99840.95
2023-05-06T08:25:21.488Z,99848.89
2023-05-06T08:27:50.012Z,99847.80
2023-05-06T08:30:18.354Z,99847.29
2023-05-06T08:32:46.959Z,99845.08
2023-05-06T08:35:15.302Z,99844.45
2023-05-06T08:37:43.964Z,99839.73
2023-05-06T08:40:20.658Z,99836.84
2023-05-06T08:42:51.024Z,99841.95
2023-05-06T08:45:19.996Z,99840.59
2023-05-06T08:47:48.790Z,99851.08
2023-05-06T08:50:17.490Z,99853.54
2023-05-06T08:52:47.948Z,99857.11
2023-05-06T08:55:17.998Z,99857.88
2023-05-06T08:57:47.592Z,99856.45
2023-05-06T09:00:16.086Z,99861.66
2023-05-06T09:02:44.517Z,99858.43
2023-05-06T09:05:13.156Z,99856.25
2023-05-06T09:07:42.044Z,99858.39
2023-05-06T09:10:14.903Z,99857.81
2023-05-06T09:12:43.327Z,99862.95
2023-05-06T09:15:15.793Z,99867.53
2023-05-06T09:17:46.404Z,99869.44
2023-05-06T09:20:25.559Z,99876.73
2023-05-06T09:22:54.083Z,99881.62
2023-05-06T09:25:23.033Z,99880.10
2023-05-06T09:27:56.186Z,99884.10
2023-05-06T09:30:25.968Z,99884.31
2023-05-06T09:32:54.925Z,99886.52
2023-05-06T09:35:38.243Z,99886.48
2023-05-06T09:38:08.044Z,99890.06
2023-05-06T09:40:37.388Z,99891.27
2023-05-06T09:43:09.045Z,99897.52
2023-05-06T09:45:46.652Z,99893.30
2023-05-06T09:48:18.048Z,99889.20
2023-05-06T09:50:47.592Z,99884.92
2023-05-06T09:53:18.160Z,99882.08
2023-05-06T09:55:50.993Z,99869.19
2023-05-06T09:58:20.540Z,99851.72
2023-05-06T10:00:52.190Z,99841.30
2023-05-06T10:03:29.989Z,99841.92
2023-05-06T10:06:01.025Z,99844.04
2023-05-06T10:08:29.637Z,99840.98
2023-05-06T10:11:00.813Z,99850.04
2023-05-06T10:13:30.420Z,99849.23
2023-05-06T10:16:03.078Z,99847.10
2023-05-06T10:18:37.597Z,99849.02
2023-05-06T10:21:17.407Z,99851.36
2023-05-06T10:23:56.735Z,99847.37
2023-05-06T10:26:30.120Z,99858.77
2023-05-06T10:29:05.377Z,99860.66
2023-05-06T10:31:37.599Z,99859.59
2023-05-06T10:34:08.948Z,99860.14
2023-05-06T10:36:37.725Z,99860.91
2023-05-06T10:39:14.469Z,99857.75
2023-05-06T10:41:44.245Z,99855.23
2023-05-06T10:44:18.404Z,99856.52
2023-05-06T10:47:16.567Z,99860.05
2023-05-06T10:50:24.151Z,99862.66
2023-05-06T10:52:58.248Z,99863.98
2023-05-06T10:56:07.278Z,99868.31
2023-05-06T10:58:38.836Z,99871.86
2023-05-06T11:01:14.526Z,99876.30
2023-05-06T11:03:44.359Z,99874.23
2023-05-06T11:06:12.734Z,99875.94
2023-05-06T11:08:46.429Z,99876.77
2023-05-06T11:12:00.495Z,99880.20
2023-05-06T11:14:35.596Z,99885.08
2023-05-06T11:17:09.137Z,99885.21
2023-05-06T11:19:40.513Z,99892.48
2023-05-06T11:22:08.873Z,99892.61
2023-05-06T11:24:43.728Z,99889.94
2023-05-06T11:27:19.673Z,99892.40
2023-05-06T11:29:48.040Z,99894.95
2023-05-06T11:32:23.298Z,99897.84
2023-05-06T11:34:56.155Z,99900.45
2023-05-06T11:37:26.768Z,99905.13
2023-05-06T11:39:55.454Z,99905.27
2023-05-06T11:42:31.321Z,99913.53
2023-05-06T11:45:02.308Z,99912.98
2023-05-06T11:47:31.165Z,99911.98
2023-05-06T11:50:00.199Z,99914.73
2023-05-06T11:52:30.822Z,99915.39
2023-05-06T11:55:00.161Z,99919.86
2023-05-06T11:57:28.785Z,99919.60
2023-05-06T11:59:57.408Z,99923.75
2023-05-06T12:02:25.901Z,99927.74
2023-05-06T12:04:54.835Z,99934.48
2023-05-06T12:07:23.494Z,99939.45
2023-05-06T12:09:52.031Z,99936.98
2023-05-06T12:12:24.132Z,99941.15
2023-05-06T12:14:53.656Z,99938.90
2023-05-06T12:17:23.545Z,99942.64
2023-05-06T12:19:54.821Z,99948.04
2023-05-06T12:22:27.419Z,99947.65
2023-05-06T12:24:55.910Z,99948.42
2023-05-06T12:27:35.365Z,99953.92
2023-05-06T12:30:04.905Z,99956.77
2023-05-06T12:32:59.785Z,99955.48
2023-05-06T12:35:29.975Z,99961.73
2023-05-06T12:38:11.971Z,99962.42
2023-05-06T12:40:41.870Z,99964.48
2023-05-06T12:43:12.303Z,99968.48
2023-05-06T12:45:40.865Z,99972.60
2023-05-06T12:48:16.398Z,99980.88
2023-05-06T12:50:45.557Z,99984.00
2023-05-06T12:53:14.138Z,99992.66
2023-05-06T12:55:42.722Z,99998.10
2023-05-06T12:58:19.485Z,100004.48
2023-05-06T13:00:47.830Z,100003.00
2023-05-06T13:03:16.187Z,100001.42
2023-05-06T13:05:46.779Z,100001.55
2023-05-06T13:08:14.898Z,100006.13
2023-05-06T13:10:43.146Z,100009.17
2023-05-06T13:13:11.697Z,100012.65
2023-05-06T13:15:43.199Z,100010.88
2023-05-06T13:18:11.780Z,100010.05
2023-05-06T13:20:40.933Z,100010.81
2023-05-06T13:23:09.715Z,100013.28
2023-05-06T13:25:44.914Z,100016.13
2023-05-06T13:28:25.516Z,100016.08
2023-05-06T13:30:53.990Z,100017.98
2023-05-06T13:33:22.963Z,100021.77
2023-05-06T13:35:51.777Z,100022.48
2023-05-06T13:38:20.713Z,100024.35
2023-05-06T13:40:53.314Z,100024.06
2023-05-06T13:43:24.919Z,100027.17
2023-05-06T13:45:54.025Z,100024.84
2023-05-06T13:48:22.277Z,100026.44
2023-05-06T13:50:52.879Z,100029.78
2023-05-06T13:53:21.719Z,100038.70
2023-05-06T13:55:50.138Z,100042.59
2023-05-06T13:58:19.062Z,100045.36
2023-05-06T14:00:47.512Z,100041.34
2023-05-06T14:03:23.539Z,100039.52
2023-05-06T14:05:51.894Z,100041.73
2023-05-06T14:08:20.236Z,100037.67
2023-05-06T14:10:49.051Z,100042.35
2023-05-06T14:13:17.760Z,100041.29
2023-05-06T14:15:46.602Z,100038.71
2023-05-06T14:18:15.205Z,100041.11
2023-05-06T14:20:46.004Z,100039.23
2023-05-06T14:23:14.997Z,100034.80
2023-05-06T14:25:43.327Z,100034.00
2023-05-06T14:28:13.387Z,100038.67
2023-05-06T14:30:42.824Z,100041.33
2023-05-06T14:33:11.724Z,100035.17
2023-05-06T14:35:42.420Z,100037.89
2023-05-06T14:38:11.230Z,100040.69
2023-05-06T14:40:39.458Z,100039.16
2023-05-06T14:43:08.176Z,100035.14
2023-05-06T14:45:36.659Z,100033.62
2023-05-06T14:48:05.698Z,100032.88
2023-05-06T14:50:35.143Z,100040.45
2023-05-06T14:53:11.304Z,100045.21
2023-05-06T14:55:41.428Z,100043.12
2023-05-06T14:58:10.290Z,100046.21
2023-05-06T15:00:38.427Z,100045.64
2023-05-06T15:03:07.269Z,100048.84
2023-05-06T15:05:37.425Z,100054.27
2023-05-06T15:08:06.481Z,100054.65
2023-05-06T15:10:35.256Z,100056.54
2023-05-06T15:13:04.129Z,100062.42
2023-05-06T15:15:32.712Z,100060.21
2023-05-06T15:18:01.501Z,100057.90
2023-05-06T15:20:30.086Z,100059.48
2023-05-06T15:22:58.506Z,100061.73
2023-05-06T15:25:35.097Z,100059.95
2023-05-06T15:28:05.803Z,100062.91
2023-05-06T15:30:34.053Z,100063.73
2023-05-06T15:33:03.140Z,100063.48
2023-05-06T15:35:40.432Z,100062.79
2023-05-06T15:38:08.826Z,100059.19
2023-05-06T15:40:40.423Z,100062.28
2023-05-06T15:43:09.084Z,100062.82
2023-05-06T15:45:37.833Z,100061.98
2023-05-06T15:48:07.251Z,100066.30
2023-05-06T15:50:39.243Z,100066.38
2023-05-06T15:53:07.866Z,100068.55
2023-05-06T15:55:44.482Z,100068.53
2023-05-06T15:58:17.689Z,100073.93
2023-05-06T16:00:46.198Z,100069.80
2023-05-06T16:03:17.251Z,100068.37
2023-05-06T16:05:45.727Z,100069.17
2023-05-06T16:08:14.342Z,100073.20
2023-05-06T16:10:43.066Z,100071.48
2023-05-06T16:13:11.454Z,100068.92
2023-05-06T16:15:39.913Z,100072.42
2023-05-06T16:18:08.552Z,100076.65
2023-05-06T16:20:37.096Z,100078.35
2023-05-06T16:23:06.454Z,100071.86
2023-05-06T16:25:35.391Z,100073.54
2023-05-06T16:28:05.518Z,100074.80
2023-05-06T16:30:37.219Z,100079.48
2023-05-06T16:33:06.459Z,100076.48
2023-05-06T16:35:34.870Z,100078.05
2023-05-06T16:38:03.360Z,100074.05
2023-05-06T16:40:31.947Z,100076.12
2023-05-06T16:43:01.442Z,100076.02
2023-05-06T16:45:29.957Z,100078.35
2023-05-06T16:47:58.686Z,100079.58
2023-05-06T16:50:27.834Z,100081.14
2023-05-06T16:52:56.406Z,100086.05
2023-05-06T16:55:25.249Z,100085.55
2023-05-06T16:57:53.693Z,100089.93
2023-05-06T17:00:22.539Z,100089.59
2023-05-06T17:02:51.666Z,100088.74
2023-05-06T17:05:22.052Z,100089.83
2023-05-06T17:07:51.096Z,100089.99
2023-05-06T17:10:19.736Z,100087.59
2023-05-06T17:12:48.313Z,100087.27
2023-05-06T17:15:25.875Z,100093.85
2023-05-06T17:17:55.923Z,100095.10
2023-05-06T17:20:28.005Z,100094.39
2023-05-06T17:22:56.557Z,100099.32
2023-05-06T17:25:25.239Z,100101.17
2023-05-06T17:27:53.508Z,100109.70
2023-05-06T17:30:22.006Z,100108.09
2023-05-06T17:32:50.440Z,100106.66
2023-05-06T17:35:18.719Z,100106.71
2023-05-06T17:37:47.605Z,100106.73
2023-05-06T17:40:16.193Z,100109.21
2023-05-06T17:42:45.042Z,100114.58
2023-05-06T17:45:14.056Z,100109.54
2023-05-06T17:47:42.442Z,100111.85
2023-05-06T17:50:11.403Z,100109.44
2023-05-06T17:52:39.528Z,100113.10
2023-05-06T17:55:16.333Z,100114.83
2023-05-06T17:57:46.615Z,100123.54
2023-05-06T18:00:18.797Z,100128.71
2023-05-06T18:02:47.786Z,100132.90
2023-05-06T18:05:17.712Z,100134.54
2023-05-06T18:07:46.796Z,100138.99
2023-05-06T18:10:17.746Z,100145.64
2023-05-06T18:12:48.838Z,100150.31
2023-05-06T18:15:17.159Z,100148.13
2023-05-06T18:17:46.282Z,100146.23
2023-05-06T18:20:15.536Z,100149.77
2023-05-06T18:22:44.659Z,100152.95
2023-05-06T18:25:13.117Z,100155.70
2023-05-06T18:27:41.824Z,100161.80
2023-05-06T18:30:11.167Z,100163.71
2023-05-06T18:32:39.717Z,100163.50
2023-05-06T18:35:12.160Z,100160.06
2023-05-06T18:37:40.745Z,100163.45
2023-05-06T18:40:09.565Z,100169.52
2023-05-06T18:42:37.804Z,100170.07
2023-05-06T18:45:10.253Z,100172.69
2023-05-06T18:47:40.424Z,100180.84
2023-05-06T18:50:09.623Z,100179.92
2023-05-06T18:52:38.025Z,100179.20
2023-05-06T18:55:07.805Z,100183.76
2023-05-06T18:57:36.315Z,100184.64
2023-05-06T19:00:07.421Z,100185.05
2023-05-06T19:02:38.238Z,100189.95
2023-05-06T19:05:08.037Z,100190.90
2023-05-06T19:07:37.024Z,100193.30
2023-05-06T19:10:05.917Z,100198.63
2023-05-06T19:12:37.007Z,100198.87
2023-05-06T19:15:14.649Z,100203.20
2023-05-06T19:17:43.036Z,100208.48
2023-05-06T19:20:11.906Z,100209.59
2023-05-06T19:22:43.687Z,100210.86
2023-05-06T19:25:14.659Z,100205.00
2023-05-06T19:27:43.517Z,100207.63
2023-05-06T19:30:12.362Z,100205.91
2023-05-06T19:32:40.822Z,100206.64
2023-05-06T19:35:09.456Z,100208.76
2023-05-06T19:37:38.822Z,100210.99
2023-05-06T19:40:08.181Z,100213.92
2023-05-06T19:42:37.952Z,100218.58
2023-05-06T19:45:08.161Z,100220.14
2023-05-06T19:47:36.872Z,100217.95
2023-05-06T19:50:06.306Z,100214.26
2023-05-06T19:52:34.876Z,100214.06
2023-05-06T19:55:03.629Z,100215.06
2023-05-06T19:57:33.971Z,100216.59
2023-05-06T20:00:08.438Z,100216.73
2023-05-06T20:02:38.369Z,100213.92
2023-05-06T20:05:07.179Z,100212.18
2023-05-06T20:07:38.329Z,100215.47
2023-05-06T20:10:09.855Z,100219.45
2023-05-06T20:12:38.354Z,100221.76
2023-05-06T20:15:08.757Z,100225.04
2023-05-06T20:17:38.859Z,100225.72
2023-05-06T20:20:11.447Z,100224.52
2023-05-06T20:22:43.061Z,100222.48
2023-05-06T20:25:17.710Z,100226.13
2023-05-06T20:27:46.668Z,100229.45
2023-05-06T20:30:15.648Z,100229.11
2023-05-06T20:32:47.477Z,100228.28
2023-05-06T20:35:16.985Z,100230.37
2023-05-06T20:37:45.477Z,100236.33
2023-05-06T20:40:17.114Z,100236.36
2023-05-06T20:42:48.980Z,100233.60
2023-05-06T20:45:26.262Z,100234.16
2023-05-06T20:47:55.340Z,100236.23
2023-05-06T20:50:23.870Z,100230.71
2023-05-06T20:52:55.060Z,100235.92
2023-05-06T20:55:26.874Z,100237.66
2023-05-06T20:57:55.341Z,100238.06
2023-05-06T21:00:24.191Z,100236.78
2023-05-06T21:02:52.991Z,100236.27
2023-05-06T21:05:21.386Z,100241.85
2023-05-06T21:07:50.039Z,100240.29
2023-05-06T21:10:18.286Z,100240.79
2023-05-06T21:12:51.623Z,100242.48
2023-05-06T21:15:19.965Z,100246.16
2023-05-06T21:17:49.851Z,100244.92
2023-05-06T21:20:19.622Z,100242.28
2023-05-06T21:22:48.225Z,100241.79
2023-05-06T21:25:16.976Z,100241.83
2023-05-06T21:27:45.541Z,100244.08
2023-05-06T21:30:16.797Z,100240.96
2023-05-06T21:32:49.887Z,100241.50
2023-05-06T21:35:18.344Z,100245.50
2023-05-06T21:37:46.779Z,100240.61
2023-05-06T21:40:31.070Z,100244.09
2023-05-06T21:43:03.560Z,100244.61
2023-05-06T21:45:34.144Z,100244.92
2023-05-06T21:48:02.438Z,100243.02
2023-05-06T21:50:37.206Z,100243.87
2023-05-06T21:53:05.890Z,100239.36
2023-05-06T21:55:57.802Z,100238.54
2023-05-06T21:58:26.530Z,100237.46
2023-05-06T22:00:57.464Z,100242.86
2023-05-06T22:04:13.425Z,100247.40
2023-05-06T22:06:42.178Z,100244.08
2023-05-06T22:09:14.398Z,100244.91
2023-05-06T22:11:44.373Z,100241.45
2023-05-06T22:14:15.398Z,100241.98
2023-05-06T22:16:46.022Z,100243.20
2023-05-06T22:19:20.480Z,100244.61
2023-05-06T22:21:58.213Z,100248.48
2023-05-06T22:24:36.976Z,100244.61
2023-05-06T22:27:05.757Z,100250.52
2023-05-06T22:29:37.144Z,100249.52
2023-05-06T22:32:09.687Z,100252.65
2023-05-06T22:34:50.153Z,100253.30
2023-05-06T22:37:21.438Z,100255.39
2023-05-06T22:39:52.147Z,100255.61
2023-05-06T22:42:41.641Z,100260.52
2023-05-06T22:45:13.453Z,100259.61
2023-05-06T22:47:42.111Z,100258.20
2023-05-06T22:50:14.753Z,100263.71
2023-05-06T22:52:48.738Z,100261.83
2023-05-06T22:55:17.659Z,100253.49
2023-05-06T22:57:54.056Z,100260.09
2023-05-06T23:00:31.740Z,100263.00
2023-05-06T23:03:06.333Z,100265.27
2023-05-06T23:05:37.993Z,100265.48
2023-05-06T23:08:08.874Z,100264.50
2023-05-06T23:10:40.924Z,100265.26
2023-05-06T23:13:09.944Z,100265.45
2023-05-06T23:15:46.079Z,100266.48
2023-05-06T23:18:14.546Z,100267.70
2023-05-06T23:20:46.333Z,100272.11
2023-05-06T23:23:18.303Z,100275.77
2023-05-06T23:26:00.756Z,100276.08
2023-05-06T23:28:29.768Z,100276.60
2023-05-06T23:30:58.224Z,100274.19
2023-05-06T23:33:26.957Z,100276.83
2023-05-06T23:35:55.885Z,100276.13
2023-05-06T23:38:24.676Z,100277.17
2023-05-06T23:40:52.986Z,100278.58
2023-05-06T23:43:21.509Z,100279.23
2023-05-06T23:46:02.255Z,100282.02
2023-05-06T23:48:40.880Z,100282.39
2023-05-06T23:51:11.227Z,100279.60
2023-05-06T23:53:39.544Z,100281.52
2023-05-06T23:56:08.283Z,100285.05
2023-05-06T23:58:36.980Z,100284.91
